メインページ
METAR-TAF:

METAR-TAF

空港 :

ポートオブスペイン, Trinidad, トリニダード・トバゴ

緯度: 10-37N, 経度: 061-21W, 海抜: 12m

現時点の気象観測

当レポートは20分前の23:00(UTC)に作成
南東の風 5kt
気温 26°C
湿度 89%
気圧 1014 hPa
視程10km以上
高度1600ftの雲はほとんどない

METAR: TTPP 272300Z 13005KT 9999 FEW016 26/24 Q1014 NOSIG

時間: 19:20 (23:20 UTC)

予報

当レポートは7時間20分前の16:00(UTC)に作成
予報は27日の 18時(UTC)から 28日の 18時(UTC)まで有効
の風 10kt
視程10km以上
高度1800ftの雲は散在している
27日の 18時(UTC)から 27日の 21時(UTC)まで一時的に
視程: 6000m
高度1200ftの雲はほとんどない, 塔状積雲.
高度1600ftの雲は散在している
にわか雨
27日の 23時(UTC)から 28日の 02時(UTC)まで徐々に
の風 kt
28日の 06時(UTC)から 28日の 18時(UTC)まで一時的に
視程: 5000m
高度1400ftの雲はほとんどない, 塔状積雲.
高度1600ftの千切れ雲あり
28日の 12時(UTC)から 28日の 14時(UTC)まで徐々に
東/南東の風 10kt

TAF: TTPP 271600Z 2718/2818 10010KT 9999 SCT018 TEMPO 2718/2721 6000 SHRA FEW012TCU SCT016 BECMG 2723/2802 00000KT TEMPO 2806/2818 5000 SHRA/VCSH FEW014TCU BKN016 BECMG 2812/2814 11010KT

4,000以上の空港の気象観測と天気予報(METAR報とTAF報)

利用可能な観測所は地図上に黄色い丸と赤い丸で示す。

丸の上にカーソルを重ねると観測所名を参照できる。

次にクリックすると気象観測と天気予報を参照できる。

マップの切り替え:黒色「×」印の緑ボタンをクリックして拡大、「-」印の緑ボタンをクリックして縮小、緑色の三角印をクリックして隣りの地図に切り替え


METAR-TAF: